Portada
METAR-TAF:

METAR-TAF

Aeropuertos :

Chlef, Argelia

latitud: 36-13N, longitud: 001-20E, altitud: 143 m

Observación

El informe se hizo hace 57 minutos, a las 16:00 UTC
Viento 6 kt del oeste-suroeste
Temperatura 16°C
Humedad 42%
Presión 1030 hPa
Visibilidad 10 km o más
sin nubes por debajo de 1500 m y sin presencia de cumulonimbus.

METAR: DAOI 171600Z 24006KT CAVOK 16/03 Q1030

Hora: 17:57 (16:57 UTC)

Pronóstico

El informe se hizo hace 5 horas y 57 minutos, a las 11:00 UTC
Pronóstico válido del 17 a las 12 UTC al 18 a las 12 UTC
Viento 2 kt con dirección variable
Visibilidad 10 km o más
sin nubes por debajo de 1500 m y sin presencia de cumulonimbus.

TAF: DAOI 171100Z 1712/1812 VRB02KT CAVOK

Observaciones y pronósticos meteorológicos de más de 4000 aeropuertos (mensajes METAR y TAF).

Los puntos amarillos y rojos representan las estaciones disponibles.

Ponga el ratón en el punto deseado para ver el nombre de la estación.

Haga clic para ver las observaciones y los pronósticos meteorológicos.

Para cambiar el mapa : haga clic en los botones verdes con una cruz de color negro para hacer un zoom, en el botón verde con un guión para alejar o en las flechas verdes para mapas adyacentes.


METAR-TAF: